sensor_id;sensor_type;location;lat;lon;timestamp;temperature;humidity
20534;DHT22;12929;56.822;26.056;2023-12-07T00:00:17;-7.30;99.90
20534;DHT22;12929;56.822;26.056;2023-12-07T00:02:44;-7.30;99.90
20534;DHT22;12929;56.822;26.056;2023-12-07T00:05:12;-7.20;99.90
20534;DHT22;12929;56.822;26.056;2023-12-07T00:07:39;-7.40;99.90
20534;DHT22;12929;56.822;26.056;2023-12-07T00:10:07;-7.30;99.90
20534;DHT22;12929;56.822;26.056;2023-12-07T00:12:34;-7.20;99.90
20534;DHT22;12929;56.822;26.056;2023-12-07T00:15:02;-7.30;99.90
20534;DHT22;12929;56.822;26.056;2023-12-07T00:17:30;-7.20;99.90
20534;DHT22;12929;56.822;26.056;2023-12-07T00:19:57;-7.30;99.90
20534;DHT22;12929;56.822;26.056;2023-12-07T00:22:25;-7.30;99.90
20534;DHT22;12929;56.822;26.056;2023-12-07T00:24:54;-7.20;99.90
20534;DHT22;12929;56.822;26.056;2023-12-07T00:27:21;-7.20;99.90
20534;DHT22;12929;56.822;26.056;2023-12-07T00:29:49;-7.40;99.90
20534;DHT22;12929;56.822;26.056;2023-12-07T00:32:16;-7.30;99.90
20534;DHT22;12929;56.822;26.056;2023-12-07T00:34:44;-7.20;99.90
20534;DHT22;12929;56.822;26.056;2023-12-07T00:37:12;-7.10;99.90
20534;DHT22;12929;56.822;26.056;2023-12-07T00:39:41;-7.20;99.90
20534;DHT22;12929;56.822;26.056;2023-12-07T00:42:09;-7.10;99.90
20534;DHT22;12929;56.822;26.056;2023-12-07T00:44:42;-7.20;99.90
20534;DHT22;12929;56.822;26.056;2023-12-07T00:47:10;-7.30;99.90
20534;DHT22;12929;56.822;26.056;2023-12-07T00:49:38;-7.30;99.90
20534;DHT22;12929;56.822;26.056;2023-12-07T00:52:09;-7.20;99.90
20534;DHT22;12929;56.822;26.056;2023-12-07T00:54:36;-7.30;99.90
20534;DHT22;12929;56.822;26.056;2023-12-07T00:57:04;-7.20;99.90
20534;DHT22;12929;56.822;26.056;2023-12-07T00:59:31;-7.20;99.90
20534;DHT22;12929;56.822;26.056;2023-12-07T01:02:01;-7.20;99.90
20534;DHT22;12929;56.822;26.056;2023-12-07T01:04:29;-7.20;99.90
20534;DHT22;12929;56.822;26.056;2023-12-07T01:06:57;-7.20;99.90
20534;DHT22;12929;56.822;26.056;2023-12-07T01:09:25;-7.30;99.90
20534;DHT22;12929;56.822;26.056;2023-12-07T01:11:53;-7.20;99.90
20534;DHT22;12929;56.822;26.056;2023-12-07T01:14:20;-7.30;99.90
20534;DHT22;12929;56.822;26.056;2023-12-07T01:16:48;-7.20;99.90
20534;DHT22;12929;56.822;26.056;2023-12-07T01:19:15;-7.20;99.90
20534;DHT22;12929;56.822;26.056;2023-12-07T01:21:43;-7.20;99.90
20534;DHT22;12929;56.822;26.056;2023-12-07T01:24:10;-7.30;99.90
20534;DHT22;12929;56.822;26.056;2023-12-07T01:26:43;-7.30;99.90
20534;DHT22;12929;56.822;26.056;2023-12-07T01:29:10;-7.20;99.90
20534;DHT22;12929;56.822;26.056;2023-12-07T01:31:38;-7.20;99.90
20534;DHT22;12929;56.822;26.056;2023-12-07T01:34:06;-7.20;99.90
20534;DHT22;12929;56.822;26.056;2023-12-07T01:36:33;-7.10;99.90
20534;DHT22;12929;56.822;26.056;2023-12-07T01:39:01;-7.10;99.90
20534;DHT22;12929;56.822;26.056;2023-12-07T01:41:28;-7.30;99.90
20534;DHT22;12929;56.822;26.056;2023-12-07T01:43:56;-7.20;99.90
20534;DHT22;12929;56.822;26.056;2023-12-07T01:46:24;-7.20;99.90
20534;DHT22;12929;56.822;26.056;2023-12-07T01:48:51;-7.10;99.90
20534;DHT22;12929;56.822;26.056;2023-12-07T01:51:19;-7.10;99.90
20534;DHT22;12929;56.822;26.056;2023-12-07T01:53:48;-6.90;99.90
20534;DHT22;12929;56.822;26.056;2023-12-07T01:56:16;-7.10;99.90
20534;DHT22;12929;56.822;26.056;2023-12-07T01:58:44;-7.00;99.90
20534;DHT22;12929;56.822;26.056;2023-12-07T02:01:12;-7.10;99.90
20534;DHT22;12929;56.822;26.056;2023-12-07T02:03:40;-7.10;99.90
20534;DHT22;12929;56.822;26.056;2023-12-07T02:06:08;-7.20;99.90
20534;DHT22;12929;56.822;26.056;2023-12-07T02:08:36;-7.10;99.90
20534;DHT22;12929;56.822;26.056;2023-12-07T02:11:09;-7.10;99.90
20534;DHT22;12929;56.822;26.056;2023-12-07T02:13:38;-7.10;99.90
20534;DHT22;12929;56.822;26.056;2023-12-07T02:16:15;-7.20;99.90
20534;DHT22;12929;56.822;26.056;2023-12-07T02:18:52;-7.20;99.90
20534;DHT22;12929;56.822;26.056;2023-12-07T02:22:02;-7.10;99.90
20534;DHT22;12929;56.822;26.056;2023-12-07T02:24:34;-7.10;99.90
20534;DHT22;12929;56.822;26.056;2023-12-07T02:27:04;-7.20;99.90
20534;DHT22;12929;56.822;26.056;2023-12-07T02:29:32;-7.30;99.90
20534;DHT22;12929;56.822;26.056;2023-12-07T02:32:00;-7.30;99.90
20534;DHT22;12929;56.822;26.056;2023-12-07T02:34:27;-7.40;99.90
20534;DHT22;12929;56.822;26.056;2023-12-07T02:36:57;-7.30;99.90
20534;DHT22;12929;56.822;26.056;2023-12-07T02:39:26;-7.20;99.90
20534;DHT22;12929;56.822;26.056;2023-12-07T02:41:54;-7.10;99.90
20534;DHT22;12929;56.822;26.056;2023-12-07T02:44:22;-7.30;99.90
20534;DHT22;12929;56.822;26.056;2023-12-07T02:46:50;-7.30;99.90
20534;DHT22;12929;56.822;26.056;2023-12-07T02:49:17;-7.30;99.90
20534;DHT22;12929;56.822;26.056;2023-12-07T02:51:45;-7.30;99.90
20534;DHT22;12929;56.822;26.056;2023-12-07T02:54:13;-7.20;99.90
20534;DHT22;12929;56.822;26.056;2023-12-07T02:56:40;-7.20;99.90
20534;DHT22;12929;56.822;26.056;2023-12-07T02:59:08;-7.30;99.90
20534;DHT22;12929;56.822;26.056;2023-12-07T03:01:35;-7.30;99.90
20534;DHT22;12929;56.822;26.056;2023-12-07T03:04:03;-7.20;99.90
20534;DHT22;12929;56.822;26.056;2023-12-07T03:06:31;-7.40;99.90
20534;DHT22;12929;56.822;26.056;2023-12-07T03:08:58;-7.40;99.90
20534;DHT22;12929;56.822;26.056;2023-12-07T03:11:26;-7.60;99.90
20534;DHT22;12929;56.822;26.056;2023-12-07T03:13:53;-7.60;99.90
20534;DHT22;12929;56.822;26.056;2023-12-07T03:16:21;-7.50;99.90
20534;DHT22;12929;56.822;26.056;2023-12-07T03:18:48;-7.40;99.90
20534;DHT22;12929;56.822;26.056;2023-12-07T03:21:16;-7.20;99.90
20534;DHT22;12929;56.822;26.056;2023-12-07T03:23:43;-7.40;99.90
20534;DHT22;12929;56.822;26.056;2023-12-07T03:26:11;-7.50;99.90
20534;DHT22;12929;56.822;26.056;2023-12-07T03:28:38;-7.30;99.90
20534;DHT22;12929;56.822;26.056;2023-12-07T03:31:06;-7.20;99.90
20534;DHT22;12929;56.822;26.056;2023-12-07T03:33:33;-7.30;99.90
20534;DHT22;12929;56.822;26.056;2023-12-07T03:36:01;-7.30;99.90
20534;DHT22;12929;56.822;26.056;2023-12-07T03:38:30;-7.30;99.90
20534;DHT22;12929;56.822;26.056;2023-12-07T03:40:57;-7.30;99.90
20534;DHT22;12929;56.822;26.056;2023-12-07T03:43:25;-7.30;99.90
20534;DHT22;12929;56.822;26.056;2023-12-07T03:45:52;-7.30;99.90
20534;DHT22;12929;56.822;26.056;2023-12-07T03:48:20;-7.20;99.90
20534;DHT22;12929;56.822;26.056;2023-12-07T03:50:47;-7.30;99.90
20534;DHT22;12929;56.822;26.056;2023-12-07T03:53:15;-7.20;99.90
20534;DHT22;12929;56.822;26.056;2023-12-07T03:55:42;-7.30;99.90
20534;DHT22;12929;56.822;26.056;2023-12-07T03:58:11;-7.20;99.90
20534;DHT22;12929;56.822;26.056;2023-12-07T04:00:40;-7.30;99.90
20534;DHT22;12929;56.822;26.056;2023-12-07T04:03:08;-7.50;99.90
20534;DHT22;12929;56.822;26.056;2023-12-07T04:05:35;-7.40;99.90
20534;DHT22;12929;56.822;26.056;2023-12-07T04:08:03;-7.20;99.90
20534;DHT22;12929;56.822;26.056;2023-12-07T04:10:32;-7.20;99.90
20534;DHT22;12929;56.822;26.056;2023-12-07T04:12:59;-7.20;99.90
20534;DHT22;12929;56.822;26.056;2023-12-07T04:15:27;-7.20;99.90
20534;DHT22;12929;56.822;26.056;2023-12-07T04:17:54;-7.30;99.90
20534;DHT22;12929;56.822;26.056;2023-12-07T04:20:22;-7.40;99.90
20534;DHT22;12929;56.822;26.056;2023-12-07T04:22:49;-7.40;99.90
20534;DHT22;12929;56.822;26.056;2023-12-07T04:25:16;-7.40;99.90
20534;DHT22;12929;56.822;26.056;2023-12-07T04:27:44;-7.40;99.90
20534;DHT22;12929;56.822;26.056;2023-12-07T04:30:12;-7.30;99.90
20534;DHT22;12929;56.822;26.056;2023-12-07T04:32:39;-7.40;99.90
20534;DHT22;12929;56.822;26.056;2023-12-07T04:35:07;-7.40;99.90
20534;DHT22;12929;56.822;26.056;2023-12-07T04:37:35;-7.30;99.90
20534;DHT22;12929;56.822;26.056;2023-12-07T04:40:03;-7.30;99.90
20534;DHT22;12929;56.822;26.056;2023-12-07T04:42:32;-7.20;99.90
20534;DHT22;12929;56.822;26.056;2023-12-07T04:44:59;-7.20;99.90
20534;DHT22;12929;56.822;26.056;2023-12-07T04:47:27;-7.30;99.90
20534;DHT22;12929;56.822;26.056;2023-12-07T04:49:55;-7.10;99.90
20534;DHT22;12929;56.822;26.056;2023-12-07T04:52:22;-7.20;99.90
20534;DHT22;12929;56.822;26.056;2023-12-07T04:54:50;-7.20;99.90
20534;DHT22;12929;56.822;26.056;2023-12-07T04:57:17;-7.40;99.90
20534;DHT22;12929;56.822;26.056;2023-12-07T04:59:45;-7.40;99.90
20534;DHT22;12929;56.822;26.056;2023-12-07T05:02:17;-7.40;99.90
20534;DHT22;12929;56.822;26.056;2023-12-07T05:04:45;-7.30;99.90
20534;DHT22;12929;56.822;26.056;2023-12-07T05:07:13;-7.20;99.90
20534;DHT22;12929;56.822;26.056;2023-12-07T05:09:41;-7.30;99.90
20534;DHT22;12929;56.822;26.056;2023-12-07T05:12:09;-7.40;99.90
20534;DHT22;12929;56.822;26.056;2023-12-07T05:14:36;-7.30;99.90
20534;DHT22;12929;56.822;26.056;2023-12-07T05:17:04;-7.20;99.90
20534;DHT22;12929;56.822;26.056;2023-12-07T05:19:32;-7.20;99.90
20534;DHT22;12929;56.822;26.056;2023-12-07T05:21:59;-7.30;99.90
20534;DHT22;12929;56.822;26.056;2023-12-07T05:24:28;-7.40;99.90
20534;DHT22;12929;56.822;26.056;2023-12-07T05:26:55;-7.30;99.90
20534;DHT22;12929;56.822;26.056;2023-12-07T05:29:23;-7.40;99.90
20534;DHT22;12929;56.822;26.056;2023-12-07T05:31:50;-7.50;99.90
20534;DHT22;12929;56.822;26.056;2023-12-07T05:34:18;-7.60;99.90
20534;DHT22;12929;56.822;26.056;2023-12-07T05:36:46;-7.50;99.90
20534;DHT22;12929;56.822;26.056;2023-12-07T05:39:15;-7.50;99.90
20534;DHT22;12929;56.822;26.056;2023-12-07T05:41:44;-7.40;99.90
20534;DHT22;12929;56.822;26.056;2023-12-07T05:44:14;-7.30;99.90
20534;DHT22;12929;56.822;26.056;2023-12-07T05:46:41;-7.30;99.90
20534;DHT22;12929;56.822;26.056;2023-12-07T05:49:11;-7.20;99.90
20534;DHT22;12929;56.822;26.056;2023-12-07T05:51:39;-7.30;99.90
20534;DHT22;12929;56.822;26.056;2023-12-07T05:54:06;-7.40;99.90
20534;DHT22;12929;56.822;26.056;2023-12-07T05:56:34;-7.30;99.90
20534;DHT22;12929;56.822;26.056;2023-12-07T05:59:02;-7.30;99.90
20534;DHT22;12929;56.822;26.056;2023-12-07T06:01:29;-7.20;99.90
20534;DHT22;12929;56.822;26.056;2023-12-07T06:03:58;-7.20;99.90
20534;DHT22;12929;56.822;26.056;2023-12-07T06:06:25;-7.20;99.90
20534;DHT22;12929;56.822;26.056;2023-12-07T06:08:53;-7.20;99.90
20534;DHT22;12929;56.822;26.056;2023-12-07T06:11:21;-7.20;99.90
20534;DHT22;12929;56.822;26.056;2023-12-07T06:13:48;-7.10;99.90
20534;DHT22;12929;56.822;26.056;2023-12-07T06:16:16;-7.00;99.90
20534;DHT22;12929;56.822;26.056;2023-12-07T06:18:45;-6.90;99.90
20534;DHT22;12929;56.822;26.056;2023-12-07T06:21:14;-6.90;99.90
20534;DHT22;12929;56.822;26.056;2023-12-07T06:23:41;-7.00;99.90
20534;DHT22;12929;56.822;26.056;2023-12-07T06:26:09;-7.10;99.90
20534;DHT22;12929;56.822;26.056;2023-12-07T06:28:36;-7.20;99.90
20534;DHT22;12929;56.822;26.056;2023-12-07T06:31:07;-7.30;99.90
20534;DHT22;12929;56.822;26.056;2023-12-07T06:33:36;-7.20;99.90
20534;DHT22;12929;56.822;26.056;2023-12-07T06:36:04;-7.20;99.90
20534;DHT22;12929;56.822;26.056;2023-12-07T06:38:31;-7.20;99.90
20534;DHT22;12929;56.822;26.056;2023-12-07T06:40:59;-7.20;99.90
20534;DHT22;12929;56.822;26.056;2023-12-07T06:43:26;-7.30;99.90
20534;DHT22;12929;56.822;26.056;2023-12-07T06:45:54;-7.20;99.90
20534;DHT22;12929;56.822;26.056;2023-12-07T06:48:22;-7.10;99.90
20534;DHT22;12929;56.822;26.056;2023-12-07T06:50:49;-7.20;99.90
20534;DHT22;12929;56.822;26.056;2023-12-07T06:53:17;-7.20;99.90
20534;DHT22;12929;56.822;26.056;2023-12-07T06:55:45;-7.00;99.90
20534;DHT22;12929;56.822;26.056;2023-12-07T06:58:13;-7.10;99.90
20534;DHT22;12929;56.822;26.056;2023-12-07T07:00:40;-7.20;99.90
20534;DHT22;12929;56.822;26.056;2023-12-07T07:03:08;-7.20;99.90
20534;DHT22;12929;56.822;26.056;2023-12-07T07:05:36;-7.10;99.90
20534;DHT22;12929;56.822;26.056;2023-12-07T07:08:04;-7.10;99.90
20534;DHT22;12929;56.822;26.056;2023-12-07T07:10:31;-7.20;99.90
20534;DHT22;12929;56.822;26.056;2023-12-07T07:13:02;-7.20;99.90
20534;DHT22;12929;56.822;26.056;2023-12-07T07:15:35;-7.20;99.90
20534;DHT22;12929;56.822;26.056;2023-12-07T07:18:02;-7.10;99.90
20534;DHT22;12929;56.822;26.056;2023-12-07T07:20:30;-7.20;99.90
20534;DHT22;12929;56.822;26.056;2023-12-07T07:22:57;-7.20;99.90
20534;DHT22;12929;56.822;26.056;2023-12-07T07:25:25;-7.10;99.90
20534;DHT22;12929;56.822;26.056;2023-12-07T07:27:53;-7.00;99.90
20534;DHT22;12929;56.822;26.056;2023-12-07T07:30:22;-7.10;99.90
20534;DHT22;12929;56.822;26.056;2023-12-07T07:32:50;-7.00;99.90
20534;DHT22;12929;56.822;26.056;2023-12-07T07:35:17;-7.00;99.90
20534;DHT22;12929;56.822;26.056;2023-12-07T07:37:45;-7.10;99.90
20534;DHT22;12929;56.822;26.056;2023-12-07T07:40:13;-7.10;99.90
20534;DHT22;12929;56.822;26.056;2023-12-07T07:42:40;-7.10;99.90
20534;DHT22;12929;56.822;26.056;2023-12-07T07:45:09;-7.10;99.90
20534;DHT22;12929;56.822;26.056;2023-12-07T07:47:36;-7.10;99.90
20534;DHT22;12929;56.822;26.056;2023-12-07T07:50:05;-7.00;99.90
20534;DHT22;12929;56.822;26.056;2023-12-07T07:52:34;-6.90;99.90
20534;DHT22;12929;56.822;26.056;2023-12-07T07:55:03;-6.90;99.90
20534;DHT22;12929;56.822;26.056;2023-12-07T07:57:32;-6.90;99.90
20534;DHT22;12929;56.822;26.056;2023-12-07T07:59:59;-7.10;99.90
20534;DHT22;12929;56.822;26.056;2023-12-07T08:02:27;-7.00;99.90
20534;DHT22;12929;56.822;26.056;2023-12-07T08:04:55;-7.00;99.90
20534;DHT22;12929;56.822;26.056;2023-12-07T08:07:22;-7.00;99.90
20534;DHT22;12929;56.822;26.056;2023-12-07T08:09:50;-7.00;99.90
20534;DHT22;12929;56.822;26.056;2023-12-07T08:12:18;-7.00;99.90
20534;DHT22;12929;56.822;26.056;2023-12-07T08:14:45;-6.90;99.90
20534;DHT22;12929;56.822;26.056;2023-12-07T08:17:16;-6.90;99.90
20534;DHT22;12929;56.822;26.056;2023-12-07T08:19:43;-6.90;99.90
20534;DHT22;12929;56.822;26.056;2023-12-07T08:22:10;-7.00;99.90
20534;DHT22;12929;56.822;26.056;2023-12-07T08:24:41;-7.00;99.90
20534;DHT22;12929;56.822;26.056;2023-12-07T08:27:10;-7.00;99.90
20534;DHT22;12929;56.822;26.056;2023-12-07T08:29:38;-7.00;99.90
20534;DHT22;12929;56.822;26.056;2023-12-07T08:32:06;-7.00;99.90
20534;DHT22;12929;56.822;26.056;2023-12-07T08:34:33;-7.00;99.90
20534;DHT22;12929;56.822;26.056;2023-12-07T08:37:01;-7.00;99.90
20534;DHT22;12929;56.822;26.056;2023-12-07T08:39:30;-6.90;99.90
20534;DHT22;12929;56.822;26.056;2023-12-07T08:41:57;-6.90;99.90
20534;DHT22;12929;56.822;26.056;2023-12-07T08:44:24;-7.10;99.90
20534;DHT22;12929;56.822;26.056;2023-12-07T08:46:52;-7.10;99.90
20534;DHT22;12929;56.822;26.056;2023-12-07T08:49:20;-7.00;99.90
20534;DHT22;12929;56.822;26.056;2023-12-07T08:51:47;-7.00;99.90
20534;DHT22;12929;56.822;26.056;2023-12-07T08:54:35;-6.90;99.90
20534;DHT22;12929;56.822;26.056;2023-12-07T08:57:03;-6.70;99.90
20534;DHT22;12929;56.822;26.056;2023-12-07T08:59:31;-6.90;99.90
20534;DHT22;12929;56.822;26.056;2023-12-07T09:01:58;-7.00;99.90
20534;DHT22;12929;56.822;26.056;2023-12-07T09:04:27;-6.80;99.90
20534;DHT22;12929;56.822;26.056;2023-12-07T09:06:54;-6.80;99.90
20534;DHT22;12929;56.822;26.056;2023-12-07T09:09:22;-6.80;99.90
20534;DHT22;12929;56.822;26.056;2023-12-07T09:11:51;-6.90;99.90
20534;DHT22;12929;56.822;26.056;2023-12-07T09:14:18;-6.80;99.90
20534;DHT22;12929;56.822;26.056;2023-12-07T09:16:46;-6.70;99.90
20534;DHT22;12929;56.822;26.056;2023-12-07T09:19:14;-6.70;99.90
20534;DHT22;12929;56.822;26.056;2023-12-07T09:21:41;-6.70;99.90
20534;DHT22;12929;56.822;26.056;2023-12-07T09:24:09;-6.80;99.90
20534;DHT22;12929;56.822;26.056;2023-12-07T09:26:36;-6.70;99.90
20534;DHT22;12929;56.822;26.056;2023-12-07T09:29:04;-6.80;99.90
20534;DHT22;12929;56.822;26.056;2023-12-07T09:31:32;-6.60;99.90
20534;DHT22;12929;56.822;26.056;2023-12-07T09:34:00;-6.80;99.90
20534;DHT22;12929;56.822;26.056;2023-12-07T09:36:39;-6.80;99.90
20534;DHT22;12929;56.822;26.056;2023-12-07T09:39:06;-6.70;99.90
20534;DHT22;12929;56.822;26.056;2023-12-07T09:41:34;-6.70;99.90
20534;DHT22;12929;56.822;26.056;2023-12-07T09:44:01;-6.70;99.90
20534;DHT22;12929;56.822;26.056;2023-12-07T09:46:29;-6.70;99.90
20534;DHT22;12929;56.822;26.056;2023-12-07T09:48:57;-6.70;99.90
20534;DHT22;12929;56.822;26.056;2023-12-07T09:51:25;-6.60;99.90
20534;DHT22;12929;56.822;26.056;2023-12-07T09:53:55;-6.60;99.90
20534;DHT22;12929;56.822;26.056;2023-12-07T09:56:23;-6.70;99.90
20534;DHT22;12929;56.822;26.056;2023-12-07T09:58:52;-6.60;99.90
20534;DHT22;12929;56.822;26.056;2023-12-07T10:01:19;-6.70;99.90
20534;DHT22;12929;56.822;26.056;2023-12-07T10:03:47;-6.60;99.90
20534;DHT22;12929;56.822;26.056;2023-12-07T10:06:15;-6.60;99.90
20534;DHT22;12929;56.822;26.056;2023-12-07T10:08:42;-6.70;99.90
20534;DHT22;12929;56.822;26.056;2023-12-07T10:11:14;-6.70;99.90
20534;DHT22;12929;56.822;26.056;2023-12-07T10:13:42;-6.70;99.90
20534;DHT22;12929;56.822;26.056;2023-12-07T10:16:14;-6.70;99.90
20534;DHT22;12929;56.822;26.056;2023-12-07T10:18:43;-6.70;99.90
20534;DHT22;12929;56.822;26.056;2023-12-07T10:21:12;-6.60;99.90
20534;DHT22;12929;56.822;26.056;2023-12-07T10:23:42;-6.60;99.90
20534;DHT22;12929;56.822;26.056;2023-12-07T10:26:17;-6.60;99.90
20534;DHT22;12929;56.822;26.056;2023-12-07T10:28:51;-6.60;99.90
20534;DHT22;12929;56.822;26.056;2023-12-07T10:31:22;-6.60;99.90
20534;DHT22;12929;56.822;26.056;2023-12-07T10:33:51;-6.60;99.90
20534;DHT22;12929;56.822;26.056;2023-12-07T10:36:19;-6.40;99.90
20534;DHT22;12929;56.822;26.056;2023-12-07T10:38:47;-6.50;99.90
20534;DHT22;12929;56.822;26.056;2023-12-07T10:41:22;-6.60;99.90
20534;DHT22;12929;56.822;26.056;2023-12-07T10:44:00;-6.50;99.90
20534;DHT22;12929;56.822;26.056;2023-12-07T10:46:27;-6.40;99.90
20534;DHT22;12929;56.822;26.056;2023-12-07T10:49:00;-6.40;99.90
20534;DHT22;12929;56.822;26.056;2023-12-07T10:51:40;-6.40;99.90
20534;DHT22;12929;56.822;26.056;2023-12-07T10:54:10;-6.30;99.90
20534;DHT22;12929;56.822;26.056;2023-12-07T10:56:44;-6.20;99.90
20534;DHT22;12929;56.822;26.056;2023-12-07T10:59:12;-6.20;99.90
20534;DHT22;12929;56.822;26.056;2023-12-07T11:01:57;-6.20;99.90
20534;DHT22;12929;56.822;26.056;2023-12-07T11:04:25;-6.20;99.90
20534;DHT22;12929;56.822;26.056;2023-12-07T11:06:57;-6.20;99.90
20534;DHT22;12929;56.822;26.056;2023-12-07T11:09:32;-6.20;99.90
20534;DHT22;12929;56.822;26.056;2023-12-07T11:12:17;-6.20;99.90
20534;DHT22;12929;56.822;26.056;2023-12-07T11:14:46;-6.20;99.90
20534;DHT22;12929;56.822;26.056;2023-12-07T11:17:15;-6.20;99.90
20534;DHT22;12929;56.822;26.056;2023-12-07T11:19:45;-6.20;99.90
20534;DHT22;12929;56.822;26.056;2023-12-07T11:22:16;-6.10;99.90
20534;DHT22;12929;56.822;26.056;2023-12-07T11:24:55;-6.10;99.90
20534;DHT22;12929;56.822;26.056;2023-12-07T11:27:35;-6.20;99.90
20534;DHT22;12929;56.822;26.056;2023-12-07T11:30:08;-6.10;99.90
20534;DHT22;12929;56.822;26.056;2023-12-07T11:32:38;-6.10;99.90
20534;DHT22;12929;56.822;26.056;2023-12-07T11:35:12;-6.20;99.90
20534;DHT22;12929;56.822;26.056;2023-12-07T11:38:06;-6.10;99.90
20534;DHT22;12929;56.822;26.056;2023-12-07T11:40:39;-6.20;99.90
20534;DHT22;12929;56.822;26.056;2023-12-07T11:43:19;-6.20;99.90
20534;DHT22;12929;56.822;26.056;2023-12-07T11:46:00;-6.20;99.90
20534;DHT22;12929;56.822;26.056;2023-12-07T11:48:30;-6.20;99.90
20534;DHT22;12929;56.822;26.056;2023-12-07T11:50:59;-6.30;99.90
20534;DHT22;12929;56.822;26.056;2023-12-07T11:53:33;-6.20;99.90
20534;DHT22;12929;56.822;26.056;2023-12-07T11:56:07;-6.20;99.90
20534;DHT22;12929;56.822;26.056;2023-12-07T11:58:36;-6.20;99.90
20534;DHT22;12929;56.822;26.056;2023-12-07T12:01:08;-6.30;99.90
20534;DHT22;12929;56.822;26.056;2023-12-07T12:03:36;-6.30;99.90
20534;DHT22;12929;56.822;26.056;2023-12-07T12:06:05;-6.30;99.90
20534;DHT22;12929;56.822;26.056;2023-12-07T12:08:35;-6.30;99.90
20534;DHT22;12929;56.822;26.056;2023-12-07T12:11:03;-6.20;99.90
20534;DHT22;12929;56.822;26.056;2023-12-07T12:13:35;-6.30;99.90
20534;DHT22;12929;56.822;26.056;2023-12-07T12:16:04;-6.30;99.90
20534;DHT22;12929;56.822;26.056;2023-12-07T12:18:33;-6.30;99.90
20534;DHT22;12929;56.822;26.056;2023-12-07T12:21:02;-6.30;99.90
20534;DHT22;12929;56.822;26.056;2023-12-07T12:23:30;-6.20;99.90
20534;DHT22;12929;56.822;26.056;2023-12-07T12:25:58;-6.40;99.90
20534;DHT22;12929;56.822;26.056;2023-12-07T12:28:25;-6.40;99.90
20534;DHT22;12929;56.822;26.056;2023-12-07T12:30:54;-6.50;99.90
20534;DHT22;12929;56.822;26.056;2023-12-07T12:33:22;-6.30;99.90
20534;DHT22;12929;56.822;26.056;2023-12-07T12:36:01;-6.50;99.90
20534;DHT22;12929;56.822;26.056;2023-12-07T12:38:29;-6.60;99.90
20534;DHT22;12929;56.822;26.056;2023-12-07T12:41:09;-6.50;99.90
20534;DHT22;12929;56.822;26.056;2023-12-07T12:43:37;-6.50;99.90
20534;DHT22;12929;56.822;26.056;2023-12-07T12:46:05;-6.40;99.90
20534;DHT22;12929;56.822;26.056;2023-12-07T12:48:33;-6.60;99.90
20534;DHT22;12929;56.822;26.056;2023-12-07T12:51:13;-6.60;99.90
20534;DHT22;12929;56.822;26.056;2023-12-07T12:53:44;-6.60;99.90
20534;DHT22;12929;56.822;26.056;2023-12-07T12:56:18;-6.60;99.90
20534;DHT22;12929;56.822;26.056;2023-12-07T12:58:46;-6.60;99.90
20534;DHT22;12929;56.822;26.056;2023-12-07T13:01:15;-6.60;99.90
20534;DHT22;12929;56.822;26.056;2023-12-07T13:03:45;-6.60;99.90
20534;DHT22;12929;56.822;26.056;2023-12-07T13:06:16;-6.50;99.90
20534;DHT22;12929;56.822;26.056;2023-12-07T13:08:45;-6.70;99.90
20534;DHT22;12929;56.822;26.056;2023-12-07T13:11:18;-6.60;99.90
20534;DHT22;12929;56.822;26.056;2023-12-07T13:13:47;-6.60;99.90
20534;DHT22;12929;56.822;26.056;2023-12-07T13:16:16;-6.70;99.90
20534;DHT22;12929;56.822;26.056;2023-12-07T13:18:44;-6.70;99.90
20534;DHT22;12929;56.822;26.056;2023-12-07T13:21:12;-6.70;99.90
20534;DHT22;12929;56.822;26.056;2023-12-07T13:23:42;-6.80;99.90
20534;DHT22;12929;56.822;26.056;2023-12-07T13:26:10;-6.80;99.90
20534;DHT22;12929;56.822;26.056;2023-12-07T13:28:38;-6.90;99.90
20534;DHT22;12929;56.822;26.056;2023-12-07T13:31:08;-6.80;99.90
20534;DHT22;12929;56.822;26.056;2023-12-07T13:33:36;-7.00;99.90
20534;DHT22;12929;56.822;26.056;2023-12-07T13:36:19;-7.00;99.90
20534;DHT22;12929;56.822;26.056;2023-12-07T13:38:48;-7.00;99.90
20534;DHT22;12929;56.822;26.056;2023-12-07T13:41:18;-7.10;99.90
20534;DHT22;12929;56.822;26.056;2023-12-07T13:43:48;-7.00;99.90
20534;DHT22;12929;56.822;26.056;2023-12-07T13:46:17;-6.90;99.90
20534;DHT22;12929;56.822;26.056;2023-12-07T13:48:46;-7.00;99.90
20534;DHT22;12929;56.822;26.056;2023-12-07T13:51:17;-7.10;99.90
20534;DHT22;12929;56.822;26.056;2023-12-07T13:53:46;-7.20;99.90
20534;DHT22;12929;56.822;26.056;2023-12-07T13:56:18;-7.10;99.90
20534;DHT22;12929;56.822;26.056;2023-12-07T13:58:49;-7.10;99.90
20534;DHT22;12929;56.822;26.056;2023-12-07T14:01:21;-7.20;99.90
20534;DHT22;12929;56.822;26.056;2023-12-07T14:03:51;-7.30;99.90
20534;DHT22;12929;56.822;26.056;2023-12-07T14:06:23;-7.30;99.90
20534;DHT22;12929;56.822;26.056;2023-12-07T14:08:56;-7.20;99.90
20534;DHT22;12929;56.822;26.056;2023-12-07T14:11:26;-7.10;99.90
20534;DHT22;12929;56.822;26.056;2023-12-07T14:13:56;-7.20;99.90
20534;DHT22;12929;56.822;26.056;2023-12-07T14:16:28;-7.10;99.90
20534;DHT22;12929;56.822;26.056;2023-12-07T14:19:17;-7.20;99.90
20534;DHT22;12929;56.822;26.056;2023-12-07T14:21:46;-7.20;99.90
20534;DHT22;12929;56.822;26.056;2023-12-07T14:24:24;-7.30;99.90
20534;DHT22;12929;56.822;26.056;2023-12-07T14:26:54;-7.30;99.90
20534;DHT22;12929;56.822;26.056;2023-12-07T14:29:25;-7.20;99.90
20534;DHT22;12929;56.822;26.056;2023-12-07T14:31:54;-7.30;99.90
20534;DHT22;12929;56.822;26.056;2023-12-07T14:34:23;-7.30;99.90
20534;DHT22;12929;56.822;26.056;2023-12-07T14:37:01;-7.30;99.90
20534;DHT22;12929;56.822;26.056;2023-12-07T14:39:30;-7.20;99.90
20534;DHT22;12929;56.822;26.056;2023-12-07T14:41:57;-7.20;99.90
20534;DHT22;12929;56.822;26.056;2023-12-07T14:44:25;-7.40;99.90
20534;DHT22;12929;56.822;26.056;2023-12-07T14:46:56;-7.40;99.90
20534;DHT22;12929;56.822;26.056;2023-12-07T14:49:24;-7.50;99.90
20534;DHT22;12929;56.822;26.056;2023-12-07T14:51:53;-7.40;99.90
20534;DHT22;12929;56.822;26.056;2023-12-07T14:54:21;-7.40;99.90
20534;DHT22;12929;56.822;26.056;2023-12-07T14:56:56;-7.40;99.90
20534;DHT22;12929;56.822;26.056;2023-12-07T14:59:24;-7.40;99.90
20534;DHT22;12929;56.822;26.056;2023-12-07T15:01:52;-7.50;99.90
20534;DHT22;12929;56.822;26.056;2023-12-07T15:04:19;-7.50;99.90
20534;DHT22;12929;56.822;26.056;2023-12-07T15:07:00;-7.50;99.90
20534;DHT22;12929;56.822;26.056;2023-12-07T15:09:28;-7.50;99.90
20534;DHT22;12929;56.822;26.056;2023-12-07T15:11:56;-7.50;99.90
20534;DHT22;12929;56.822;26.056;2023-12-07T15:14:24;-7.50;99.90
20534;DHT22;12929;56.822;26.056;2023-12-07T15:17:04;-7.70;99.90
20534;DHT22;12929;56.822;26.056;2023-12-07T15:19:33;-7.70;99.90
20534;DHT22;12929;56.822;26.056;2023-12-07T15:22:01;-7.50;99.90
20534;DHT22;12929;56.822;26.056;2023-12-07T15:24:30;-7.60;99.90
20534;DHT22;12929;56.822;26.056;2023-12-07T15:27:05;-7.60;99.90